Clinton, Iowa
Current Conditions -  °F | °C
As of 3:55 AM on Saturday 25 Oct 2014 (Local Time) from KCWI Reporting Station
Overcast Overcast  
Wind Chill: 55°   Ceiling: 200
Heat Index: 55°   Visibility: 0.5mi
Dew Point: 54°   Wind: 8mph
Humidity: 94%   Direction: 290°WNW
Pressure: 29.96"   Gusts: NA
Location:  41.84°N, 90.19°W
Report Text: KCWI 250855Z 29007KT 1/2SM OVC002 13/12 A2996 RMK AO1 52003
Loading
Personal Weather Stations






























Interactive Weather Map New forecast layout! Learn more

10-Day Weather Forecast

Advertisements
Track Severe Weather on mobile